Goldenvalley, North Dakota
Current Conditions -  °F | °C
As of 8:35 AM on Thursday 18 Dec 2014 (Local Time) from KHZE Reporting Station
Overcast Overcast  
Wind Chill:   Ceiling: 1600
Heat Index: 19°   Visibility: 10mi
Dew Point: 16°   Wind: 12mph
Humidity: 86%   Direction: 160°SSE
Pressure: 30.05"   Gusts: NA
Location:  47.3048°N, 102.062°W
Report Text: KHZE 181535Z AUTO 16010KT 10SM SCT008 OVC016 M07/M09 A3005 RMK AO2
Loading
Personal Weather Stations






























Interactive Weather Map New forecast layout! Learn more

10-Day Weather Forecast

Advertisements
Track Severe Weather on mobile